sensor_id;sensor_type;location;lat;lon;timestamp;temperature;humidity
11704;DHT22;5908;51.354;7.458;2023-08-06T00:00:22;16.90;99.90
11704;DHT22;5908;51.354;7.458;2023-08-06T00:02:49;16.90;99.90
11704;DHT22;5908;51.354;7.458;2023-08-06T00:05:16;16.90;99.90
11704;DHT22;5908;51.354;7.458;2023-08-06T00:07:43;16.80;99.90
11704;DHT22;5908;51.354;7.458;2023-08-06T00:10:10;16.90;99.90
11704;DHT22;5908;51.354;7.458;2023-08-06T00:12:39;17.00;99.90
11704;DHT22;5908;51.354;7.458;2023-08-06T00:15:06;16.90;99.90
11704;DHT22;5908;51.354;7.458;2023-08-06T00:17:34;16.90;99.90
11704;DHT22;5908;51.354;7.458;2023-08-06T00:20:01;16.80;99.90
11704;DHT22;5908;51.354;7.458;2023-08-06T00:22:30;16.70;99.90
11704;DHT22;5908;51.354;7.458;2023-08-06T00:24:57;16.70;99.90
11704;DHT22;5908;51.354;7.458;2023-08-06T00:27:24;16.80;99.90
11704;DHT22;5908;51.354;7.458;2023-08-06T00:29:52;16.70;99.90
11704;DHT22;5908;51.354;7.458;2023-08-06T00:32:19;16.60;99.90
11704;DHT22;5908;51.354;7.458;2023-08-06T00:34:46;16.60;99.90
11704;DHT22;5908;51.354;7.458;2023-08-06T00:37:15;16.60;99.90
11704;DHT22;5908;51.354;7.458;2023-08-06T00:39:42;16.50;99.90
11704;DHT22;5908;51.354;7.458;2023-08-06T00:42:09;16.50;99.90
11704;DHT22;5908;51.354;7.458;2023-08-06T00:44:35;16.50;99.90
11704;DHT22;5908;51.354;7.458;2023-08-06T00:47:04;16.60;99.90
11704;DHT22;5908;51.354;7.458;2023-08-06T00:49:31;16.50;99.90
11704;DHT22;5908;51.354;7.458;2023-08-06T00:51:58;16.50;99.90
11704;DHT22;5908;51.354;7.458;2023-08-06T00:54:27;16.60;99.90
11704;DHT22;5908;51.354;7.458;2023-08-06T00:56:54;16.60;99.90
11704;DHT22;5908;51.354;7.458;2023-08-06T00:59:21;16.60;99.90
11704;DHT22;5908;51.354;7.458;2023-08-06T01:01:48;16.60;99.90
11704;DHT22;5908;51.354;7.458;2023-08-06T01:04:16;16.60;99.90
11704;DHT22;5908;51.354;7.458;2023-08-06T01:06:46;16.60;99.90
11704;DHT22;5908;51.354;7.458;2023-08-06T01:09:25;16.60;99.90
11704;DHT22;5908;51.354;7.458;2023-08-06T01:12:01;16.60;99.90
11704;DHT22;5908;51.354;7.458;2023-08-06T01:14:33;16.60;99.90
11704;DHT22;5908;51.354;7.458;2023-08-06T01:17:04;16.60;99.90
11704;DHT22;5908;51.354;7.458;2023-08-06T01:19:33;16.50;99.90
11704;DHT22;5908;51.354;7.458;2023-08-06T01:22:01;16.50;99.90
11704;DHT22;5908;51.354;7.458;2023-08-06T01:24:28;16.50;99.90
11704;DHT22;5908;51.354;7.458;2023-08-06T01:27:01;16.60;99.90
11704;DHT22;5908;51.354;7.458;2023-08-06T01:29:34;16.60;99.90
11704;DHT22;5908;51.354;7.458;2023-08-06T01:32:02;16.70;99.90
11704;DHT22;5908;51.354;7.458;2023-08-06T01:34:32;16.60;99.90
11704;DHT22;5908;51.354;7.458;2023-08-06T01:37:02;16.70;99.90
11704;DHT22;5908;51.354;7.458;2023-08-06T01:39:29;16.80;99.90
11704;DHT22;5908;51.354;7.458;2023-08-06T01:41:57;16.90;99.90
11704;DHT22;5908;51.354;7.458;2023-08-06T01:44:24;16.80;99.90
11704;DHT22;5908;51.354;7.458;2023-08-06T01:46:51;16.90;99.90
11704;DHT22;5908;51.354;7.458;2023-08-06T01:49:17;16.90;99.90
11704;DHT22;5908;51.354;7.458;2023-08-06T01:51:44;16.90;99.90
11704;DHT22;5908;51.354;7.458;2023-08-06T01:54:12;16.90;99.90
11704;DHT22;5908;51.354;7.458;2023-08-06T01:56:39;17.00;99.90
11704;DHT22;5908;51.354;7.458;2023-08-06T01:59:06;16.90;99.90
11704;DHT22;5908;51.354;7.458;2023-08-06T02:01:33;16.80;99.90
11704;DHT22;5908;51.354;7.458;2023-08-06T02:04:00;16.90;99.90
11704;DHT22;5908;51.354;7.458;2023-08-06T02:06:27;16.80;99.90
11704;DHT22;5908;51.354;7.458;2023-08-06T02:08:53;16.80;99.90
11704;DHT22;5908;51.354;7.458;2023-08-06T02:11:22;16.80;99.90
11704;DHT22;5908;51.354;7.458;2023-08-06T02:13:48;16.70;99.90
11704;DHT22;5908;51.354;7.458;2023-08-06T02:16:15;16.70;99.90
11704;DHT22;5908;51.354;7.458;2023-08-06T02:18:42;16.70;99.90
11704;DHT22;5908;51.354;7.458;2023-08-06T02:21:08;16.70;99.90
11704;DHT22;5908;51.354;7.458;2023-08-06T02:23:35;16.70;99.90
11704;DHT22;5908;51.354;7.458;2023-08-06T02:26:04;16.80;99.90
11704;DHT22;5908;51.354;7.458;2023-08-06T02:28:32;16.90;99.90
11704;DHT22;5908;51.354;7.458;2023-08-06T02:30:59;17.00;99.90
11704;DHT22;5908;51.354;7.458;2023-08-06T02:33:25;16.90;99.90
11704;DHT22;5908;51.354;7.458;2023-08-06T02:35:59;16.90;99.90
11704;DHT22;5908;51.354;7.458;2023-08-06T02:38:26;16.90;99.90
11704;DHT22;5908;51.354;7.458;2023-08-06T02:40:52;16.80;99.90
11704;DHT22;5908;51.354;7.458;2023-08-06T02:43:19;16.80;99.90
11704;DHT22;5908;51.354;7.458;2023-08-06T02:45:47;16.80;99.90
11704;DHT22;5908;51.354;7.458;2023-08-06T02:48:14;16.80;99.90
11704;DHT22;5908;51.354;7.458;2023-08-06T02:50:41;16.80;99.90
11704;DHT22;5908;51.354;7.458;2023-08-06T02:53:08;16.70;99.90
11704;DHT22;5908;51.354;7.458;2023-08-06T02:55:34;16.60;99.90
11704;DHT22;5908;51.354;7.458;2023-08-06T02:58:01;16.50;99.90
11704;DHT22;5908;51.354;7.458;2023-08-06T03:00:28;16.50;99.90
11704;DHT22;5908;51.354;7.458;2023-08-06T03:02:56;16.40;99.90
11704;DHT22;5908;51.354;7.458;2023-08-06T03:05:23;16.40;99.90
11704;DHT22;5908;51.354;7.458;2023-08-06T03:07:49;16.40;99.90
11704;DHT22;5908;51.354;7.458;2023-08-06T03:10:16;16.30;99.90
11704;DHT22;5908;51.354;7.458;2023-08-06T03:12:42;16.30;99.90
11704;DHT22;5908;51.354;7.458;2023-08-06T03:15:09;16.20;99.90
11704;DHT22;5908;51.354;7.458;2023-08-06T03:17:36;16.30;99.90
11704;DHT22;5908;51.354;7.458;2023-08-06T03:20:04;16.30;99.90
11704;DHT22;5908;51.354;7.458;2023-08-06T03:22:31;16.30;99.90
11704;DHT22;5908;51.354;7.458;2023-08-06T03:24:57;16.40;99.90
11704;DHT22;5908;51.354;7.458;2023-08-06T03:27:24;16.40;99.90
11704;DHT22;5908;51.354;7.458;2023-08-06T03:29:51;16.40;99.90
11704;DHT22;5908;51.354;7.458;2023-08-06T03:32:17;16.50;99.90
11704;DHT22;5908;51.354;7.458;2023-08-06T03:34:44;16.40;99.90
11704;DHT22;5908;51.354;7.458;2023-08-06T03:37:12;16.40;99.90
11704;DHT22;5908;51.354;7.458;2023-08-06T03:39:38;16.50;99.90
11704;DHT22;5908;51.354;7.458;2023-08-06T03:42:05;16.50;99.90
11704;DHT22;5908;51.354;7.458;2023-08-06T03:44:32;16.50;99.90
11704;DHT22;5908;51.354;7.458;2023-08-06T03:46:58;16.50;99.90
11704;DHT22;5908;51.354;7.458;2023-08-06T03:49:25;16.60;99.90
11704;DHT22;5908;51.354;7.458;2023-08-06T03:51:51;16.70;99.90
11704;DHT22;5908;51.354;7.458;2023-08-06T03:54:20;16.70;99.90
11704;DHT22;5908;51.354;7.458;2023-08-06T03:56:46;16.80;99.90
11704;DHT22;5908;51.354;7.458;2023-08-06T03:59:13;16.80;99.90
11704;DHT22;5908;51.354;7.458;2023-08-06T04:01:40;16.80;99.90
11704;DHT22;5908;51.354;7.458;2023-08-06T04:04:07;16.70;99.90
11704;DHT22;5908;51.354;7.458;2023-08-06T04:06:33;16.70;99.90
11704;DHT22;5908;51.354;7.458;2023-08-06T04:09:00;16.80;99.90
11704;DHT22;5908;51.354;7.458;2023-08-06T04:11:28;16.80;99.90
11704;DHT22;5908;51.354;7.458;2023-08-06T04:13:55;16.80;99.90
11704;DHT22;5908;51.354;7.458;2023-08-06T04:16:21;16.90;99.90
11704;DHT22;5908;51.354;7.458;2023-08-06T04:18:48;16.80;99.90
11704;DHT22;5908;51.354;7.458;2023-08-06T04:21:15;16.80;99.90
11704;DHT22;5908;51.354;7.458;2023-08-06T04:23:42;16.80;99.90
11704;DHT22;5908;51.354;7.458;2023-08-06T04:26:08;16.80;99.90
11704;DHT22;5908;51.354;7.458;2023-08-06T04:28:36;16.90;99.90
11704;DHT22;5908;51.354;7.458;2023-08-06T04:31:03;16.90;99.90
11704;DHT22;5908;51.354;7.458;2023-08-06T04:33:30;16.90;99.90
11704;DHT22;5908;51.354;7.458;2023-08-06T04:35:57;16.90;99.90
11704;DHT22;5908;51.354;7.458;2023-08-06T04:38:24;17.00;99.90
11704;DHT22;5908;51.354;7.458;2023-08-06T04:40:51;17.00;99.90
11704;DHT22;5908;51.354;7.458;2023-08-06T04:43:18;17.10;99.90
11704;DHT22;5908;51.354;7.458;2023-08-06T04:45:49;17.10;99.90
11704;DHT22;5908;51.354;7.458;2023-08-06T04:48:16;17.20;99.90
11704;DHT22;5908;51.354;7.458;2023-08-06T04:50:44;17.30;99.90
11704;DHT22;5908;51.354;7.458;2023-08-06T04:53:11;17.30;99.90
11704;DHT22;5908;51.354;7.458;2023-08-06T04:55:38;17.30;99.90
11704;DHT22;5908;51.354;7.458;2023-08-06T04:58:05;17.40;99.90
11704;DHT22;5908;51.354;7.458;2023-08-06T05:00:32;17.40;99.90
11704;DHT22;5908;51.354;7.458;2023-08-06T05:03:00;17.50;99.90
11704;DHT22;5908;51.354;7.458;2023-08-06T05:05:27;17.60;99.90
11704;DHT22;5908;51.354;7.458;2023-08-06T05:07:55;17.70;99.90
11704;DHT22;5908;51.354;7.458;2023-08-06T05:10:24;17.70;99.90
11704;DHT22;5908;51.354;7.458;2023-08-06T05:12:50;17.80;99.90
11704;DHT22;5908;51.354;7.458;2023-08-06T05:15:17;17.80;99.90
11704;DHT22;5908;51.354;7.458;2023-08-06T05:17:44;17.90;99.90
11704;DHT22;5908;51.354;7.458;2023-08-06T05:20:12;17.90;99.90
11704;DHT22;5908;51.354;7.458;2023-08-06T05:22:39;17.90;99.90
11704;DHT22;5908;51.354;7.458;2023-08-06T05:25:07;17.90;99.90
11704;DHT22;5908;51.354;7.458;2023-08-06T05:27:33;18.00;99.90
11704;DHT22;5908;51.354;7.458;2023-08-06T05:30:00;18.10;99.90
11704;DHT22;5908;51.354;7.458;2023-08-06T05:32:27;18.20;99.90
11704;DHT22;5908;51.354;7.458;2023-08-06T05:34:54;18.20;99.90
11704;DHT22;5908;51.354;7.458;2023-08-06T05:37:22;18.40;99.90
11704;DHT22;5908;51.354;7.458;2023-08-06T05:39:49;18.50;99.90
11704;DHT22;5908;51.354;7.458;2023-08-06T05:42:16;18.50;99.90
11704;DHT22;5908;51.354;7.458;2023-08-06T05:44:42;18.60;99.90
11704;DHT22;5908;51.354;7.458;2023-08-06T05:47:09;18.50;99.90
11704;DHT22;5908;51.354;7.458;2023-08-06T05:49:36;18.60;99.90
11704;DHT22;5908;51.354;7.458;2023-08-06T05:52:04;18.70;99.90
11704;DHT22;5908;51.354;7.458;2023-08-06T05:54:35;18.80;99.90
11704;DHT22;5908;51.354;7.458;2023-08-06T05:57:02;18.70;99.90
11704;DHT22;5908;51.354;7.458;2023-08-06T05:59:29;18.70;99.90
11704;DHT22;5908;51.354;7.458;2023-08-06T06:01:55;18.90;99.90
11704;DHT22;5908;51.354;7.458;2023-08-06T06:04:22;18.90;99.90
11704;DHT22;5908;51.354;7.458;2023-08-06T06:06:49;19.00;99.90
11704;DHT22;5908;51.354;7.458;2023-08-06T06:09:15;19.40;99.90
11704;DHT22;5908;51.354;7.458;2023-08-06T06:11:44;19.50;99.90
11704;DHT22;5908;51.354;7.458;2023-08-06T06:14:10;19.70;99.90
11704;DHT22;5908;51.354;7.458;2023-08-06T06:16:37;19.80;99.90
11704;DHT22;5908;51.354;7.458;2023-08-06T06:19:04;19.90;99.90
11704;DHT22;5908;51.354;7.458;2023-08-06T06:21:31;19.90;99.90
11704;DHT22;5908;51.354;7.458;2023-08-06T06:23:57;20.00;99.90
11704;DHT22;5908;51.354;7.458;2023-08-06T06:26:24;20.10;99.90
11704;DHT22;5908;51.354;7.458;2023-08-06T06:28:52;20.10;99.90
11704;DHT22;5908;51.354;7.458;2023-08-06T06:31:19;20.20;99.90
11704;DHT22;5908;51.354;7.458;2023-08-06T06:33:46;20.20;99.90
11704;DHT22;5908;51.354;7.458;2023-08-06T06:36:12;20.30;99.90
11704;DHT22;5908;51.354;7.458;2023-08-06T06:38:39;20.40;99.90
11704;DHT22;5908;51.354;7.458;2023-08-06T06:41:06;20.30;99.90
11704;DHT22;5908;51.354;7.458;2023-08-06T06:43:33;20.50;99.90
11704;DHT22;5908;51.354;7.458;2023-08-06T06:46:01;20.60;99.90
11704;DHT22;5908;51.354;7.458;2023-08-06T06:48:30;20.70;99.80
11704;DHT22;5908;51.354;7.458;2023-08-06T06:50:58;20.90;99.50
11704;DHT22;5908;51.354;7.458;2023-08-06T06:53:25;21.00;99.00
11704;DHT22;5908;51.354;7.458;2023-08-06T06:55:53;21.10;98.50
11704;DHT22;5908;51.354;7.458;2023-08-06T06:58:19;21.30;98.00
11704;DHT22;5908;51.354;7.458;2023-08-06T07:00:46;21.30;97.80
11704;DHT22;5908;51.354;7.458;2023-08-06T07:03:14;21.40;97.40
11704;DHT22;5908;51.354;7.458;2023-08-06T07:05:43;21.50;96.70
11704;DHT22;5908;51.354;7.458;2023-08-06T07:08:09;21.60;96.50
11704;DHT22;5908;51.354;7.458;2023-08-06T07:10:37;21.50;96.60
11704;DHT22;5908;51.354;7.458;2023-08-06T07:13:03;21.50;96.20
11704;DHT22;5908;51.354;7.458;2023-08-06T07:15:30;21.50;96.30
11704;DHT22;5908;51.354;7.458;2023-08-06T07:17:57;21.50;95.70
11704;DHT22;5908;51.354;7.458;2023-08-06T07:20:25;21.30;96.70
11704;DHT22;5908;51.354;7.458;2023-08-06T07:22:54;21.30;96.40
11704;DHT22;5908;51.354;7.458;2023-08-06T07:25:21;21.30;96.50
11704;DHT22;5908;51.354;7.458;2023-08-06T07:27:48;21.40;96.20
11704;DHT22;5908;51.354;7.458;2023-08-06T07:30:15;21.40;96.10
11704;DHT22;5908;51.354;7.458;2023-08-06T07:32:42;21.50;95.50
11704;DHT22;5908;51.354;7.458;2023-08-06T07:35:09;21.60;95.40
11704;DHT22;5908;51.354;7.458;2023-08-06T07:37:39;21.70;95.00
11704;DHT22;5908;51.354;7.458;2023-08-06T07:40:07;21.70;94.40
11704;DHT22;5908;51.354;7.458;2023-08-06T07:42:34;21.70;95.00
11704;DHT22;5908;51.354;7.458;2023-08-06T07:45:02;21.80;94.70
11704;DHT22;5908;51.354;7.458;2023-08-06T07:47:29;21.80;94.10
11704;DHT22;5908;51.354;7.458;2023-08-06T07:49:55;21.90;93.90
11704;DHT22;5908;51.354;7.458;2023-08-06T07:52:22;22.00;94.30
11704;DHT22;5908;51.354;7.458;2023-08-06T07:54:50;22.00;93.70
11704;DHT22;5908;51.354;7.458;2023-08-06T07:57:17;22.00;93.70
11704;DHT22;5908;51.354;7.458;2023-08-06T07:59:44;21.90;94.70
11704;DHT22;5908;51.354;7.458;2023-08-06T08:02:10;21.60;94.50
11704;DHT22;5908;51.354;7.458;2023-08-06T08:04:37;21.50;94.80
11704;DHT22;5908;51.354;7.458;2023-08-06T08:07:04;21.30;95.10
11704;DHT22;5908;51.354;7.458;2023-08-06T08:09:31;21.20;95.50
11704;DHT22;5908;51.354;7.458;2023-08-06T08:11:59;21.10;95.80
11704;DHT22;5908;51.354;7.458;2023-08-06T08:14:28;21.10;96.00
11704;DHT22;5908;51.354;7.458;2023-08-06T08:17:00;20.80;95.60
11704;DHT22;5908;51.354;7.458;2023-08-06T08:19:27;20.50;96.40
11704;DHT22;5908;51.354;7.458;2023-08-06T08:21:54;20.40;97.40
11704;DHT22;5908;51.354;7.458;2023-08-06T08:24:21;20.30;98.20
11704;DHT22;5908;51.354;7.458;2023-08-06T08:26:49;20.00;99.90
11704;DHT22;5908;51.354;7.458;2023-08-06T08:29:17;19.90;99.90
11704;DHT22;5908;51.354;7.458;2023-08-06T08:31:44;19.70;99.90
11704;DHT22;5908;51.354;7.458;2023-08-06T08:34:11;19.40;99.90
11704;DHT22;5908;51.354;7.458;2023-08-06T08:36:37;19.10;99.90
11704;DHT22;5908;51.354;7.458;2023-08-06T08:39:04;19.30;99.90
11704;DHT22;5908;51.354;7.458;2023-08-06T08:41:31;19.30;99.90
11704;DHT22;5908;51.354;7.458;2023-08-06T08:43:59;19.50;99.90
11704;DHT22;5908;51.354;7.458;2023-08-06T08:46:29;20.00;99.90
11704;DHT22;5908;51.354;7.458;2023-08-06T08:48:59;20.30;99.90
11704;DHT22;5908;51.354;7.458;2023-08-06T08:51:27;19.90;99.90
11704;DHT22;5908;51.354;7.458;2023-08-06T08:53:55;19.40;99.90
11704;DHT22;5908;51.354;7.458;2023-08-06T08:56:23;19.10;99.90
11704;DHT22;5908;51.354;7.458;2023-08-06T08:58:50;19.00;99.90
11704;DHT22;5908;51.354;7.458;2023-08-06T09:01:19;18.90;99.90
11704;DHT22;5908;51.354;7.458;2023-08-06T09:03:48;19.20;99.90
11704;DHT22;5908;51.354;7.458;2023-08-06T09:06:17;19.60;99.90
11704;DHT22;5908;51.354;7.458;2023-08-06T09:08:51;20.00;99.90
11704;DHT22;5908;51.354;7.458;2023-08-06T09:11:21;20.30;99.90
11704;DHT22;5908;51.354;7.458;2023-08-06T09:13:48;20.40;99.90
11704;DHT22;5908;51.354;7.458;2023-08-06T09:16:15;20.60;99.90
11704;DHT22;5908;51.354;7.458;2023-08-06T09:18:42;20.70;99.90
11704;DHT22;5908;51.354;7.458;2023-08-06T09:21:15;20.80;99.90
11704;DHT22;5908;51.354;7.458;2023-08-06T09:23:42;20.70;99.90
11704;DHT22;5908;51.354;7.458;2023-08-06T09:26:13;20.50;99.90
11704;DHT22;5908;51.354;7.458;2023-08-06T09:28:40;20.10;99.90
11704;DHT22;5908;51.354;7.458;2023-08-06T09:31:08;19.60;99.90
11704;DHT22;5908;51.354;7.458;2023-08-06T09:33:36;18.90;99.90
11704;DHT22;5908;51.354;7.458;2023-08-06T09:36:10;18.50;99.90
11704;DHT22;5908;51.354;7.458;2023-08-06T09:38:41;18.00;99.90
11704;DHT22;5908;51.354;7.458;2023-08-06T09:41:08;18.20;99.90
11704;DHT22;5908;51.354;7.458;2023-08-06T09:43:44;18.60;99.90
11704;DHT22;5908;51.354;7.458;2023-08-06T09:46:12;19.00;99.90
11704;DHT22;5908;51.354;7.458;2023-08-06T09:48:40;19.30;99.90
11704;DHT22;5908;51.354;7.458;2023-08-06T09:51:08;19.50;99.90
11704;DHT22;5908;51.354;7.458;2023-08-06T09:53:37;19.60;99.90
11704;DHT22;5908;51.354;7.458;2023-08-06T09:56:06;19.70;99.90
11704;DHT22;5908;51.354;7.458;2023-08-06T09:58:32;19.80;99.90
11704;DHT22;5908;51.354;7.458;2023-08-06T10:01:00;19.90;99.90
11704;DHT22;5908;51.354;7.458;2023-08-06T10:03:29;20.10;99.90
11704;DHT22;5908;51.354;7.458;2023-08-06T10:05:57;19.70;99.90
11704;DHT22;5908;51.354;7.458;2023-08-06T10:08:27;19.40;99.90
11704;DHT22;5908;51.354;7.458;2023-08-06T10:10:54;19.60;99.90
11704;DHT22;5908;51.354;7.458;2023-08-06T10:13:24;19.80;99.90
11704;DHT22;5908;51.354;7.458;2023-08-06T10:15:52;20.00;99.90
11704;DHT22;5908;51.354;7.458;2023-08-06T10:18:19;20.20;99.90
11704;DHT22;5908;51.354;7.458;2023-08-06T10:20:48;20.50;99.90
11704;DHT22;5908;51.354;7.458;2023-08-06T10:23:14;20.90;99.90
11704;DHT22;5908;51.354;7.458;2023-08-06T10:25:43;21.10;99.90
11704;DHT22;5908;51.354;7.458;2023-08-06T10:28:10;21.30;99.90
11704;DHT22;5908;51.354;7.458;2023-08-06T10:30:44;21.60;99.90
11704;DHT22;5908;51.354;7.458;2023-08-06T10:33:12;21.70;99.90
11704;DHT22;5908;51.354;7.458;2023-08-06T10:35:41;21.60;99.90
11704;DHT22;5908;51.354;7.458;2023-08-06T10:38:11;21.30;99.90
11704;DHT22;5908;51.354;7.458;2023-08-06T10:40:40;20.50;99.90
11704;DHT22;5908;51.354;7.458;2023-08-06T10:43:07;19.90;99.90
11704;DHT22;5908;51.354;7.458;2023-08-06T10:45:36;19.50;99.90
11704;DHT22;5908;51.354;7.458;2023-08-06T10:48:05;19.40;99.90
11704;DHT22;5908;51.354;7.458;2023-08-06T10:50:32;19.20;99.90
11704;DHT22;5908;51.354;7.458;2023-08-06T10:53:04;19.60;99.90
11704;DHT22;5908;51.354;7.458;2023-08-06T10:55:31;20.10;99.90
11704;DHT22;5908;51.354;7.458;2023-08-06T10:57:58;20.70;99.90
11704;DHT22;5908;51.354;7.458;2023-08-06T11:00:25;21.10;99.90
11704;DHT22;5908;51.354;7.458;2023-08-06T11:02:52;21.60;99.90
11704;DHT22;5908;51.354;7.458;2023-08-06T11:05:21;21.80;99.90
11704;DHT22;5908;51.354;7.458;2023-08-06T11:07:48;22.00;99.90
11704;DHT22;5908;51.354;7.458;2023-08-06T11:10:16;21.80;99.90
11704;DHT22;5908;51.354;7.458;2023-08-06T11:12:43;21.80;99.40
11704;DHT22;5908;51.354;7.458;2023-08-06T11:15:10;21.80;98.80
11704;DHT22;5908;51.354;7.458;2023-08-06T11:17:39;22.00;99.30
11704;DHT22;5908;51.354;7.458;2023-08-06T11:20:07;22.20;99.30
11704;DHT22;5908;51.354;7.458;2023-08-06T11:22:36;22.70;97.00
11704;DHT22;5908;51.354;7.458;2023-08-06T11:25:04;22.70;97.00
11704;DHT22;5908;51.354;7.458;2023-08-06T11:27:31;23.20;96.40
11704;DHT22;5908;51.354;7.458;2023-08-06T11:29:58;23.50;95.10
11704;DHT22;5908;51.354;7.458;2023-08-06T11:32:24;23.60;94.70
11704;DHT22;5908;51.354;7.458;2023-08-06T11:34:53;23.80;93.70
11704;DHT22;5908;51.354;7.458;2023-08-06T11:37:21;23.50;93.60
11704;DHT22;5908;51.354;7.458;2023-08-06T11:39:51;23.30;92.90
11704;DHT22;5908;51.354;7.458;2023-08-06T11:42:18;23.10;94.10
11704;DHT22;5908;51.354;7.458;2023-08-06T11:44:44;22.80;93.70
11704;DHT22;5908;51.354;7.458;2023-08-06T11:47:15;22.70;94.00
11704;DHT22;5908;51.354;7.458;2023-08-06T11:49:45;22.90;94.60
11704;DHT22;5908;51.354;7.458;2023-08-06T11:52:16;22.70;94.70
11704;DHT22;5908;51.354;7.458;2023-08-06T11:54:45;22.70;94.30
11704;DHT22;5908;51.354;7.458;2023-08-06T11:57:13;22.90;94.20
11704;DHT22;5908;51.354;7.458;2023-08-06T11:59:40;22.80;94.30
11704;DHT22;5908;51.354;7.458;2023-08-06T12:02:08;22.70;93.10
11704;DHT22;5908;51.354;7.458;2023-08-06T12:05:02;22.60;93.20
11704;DHT22;5908;51.354;7.458;2023-08-06T12:07:30;22.80;93.10
11704;DHT22;5908;51.354;7.458;2023-08-06T12:09:57;22.80;93.50
11704;DHT22;5908;51.354;7.458;2023-08-06T12:12:26;22.30;95.10
11704;DHT22;5908;51.354;7.458;2023-08-06T12:14:53;21.70;96.40
11704;DHT22;5908;51.354;7.458;2023-08-06T12:17:20;21.00;98.20
11704;DHT22;5908;51.354;7.458;2023-08-06T12:19:47;20.50;99.90
11704;DHT22;5908;51.354;7.458;2023-08-06T12:22:14;20.10;99.90
11704;DHT22;5908;51.354;7.458;2023-08-06T12:24:41;19.90;99.90
11704;DHT22;5908;51.354;7.458;2023-08-06T12:27:08;19.90;99.90
11704;DHT22;5908;51.354;7.458;2023-08-06T12:29:37;19.80;99.90
11704;DHT22;5908;51.354;7.458;2023-08-06T12:32:04;19.80;99.90
11704;DHT22;5908;51.354;7.458;2023-08-06T12:34:31;19.90;99.90
11704;DHT22;5908;51.354;7.458;2023-08-06T12:36:58;19.90;99.90
11704;DHT22;5908;51.354;7.458;2023-08-06T12:39:25;19.90;99.90
11704;DHT22;5908;51.354;7.458;2023-08-06T12:41:54;20.00;99.90
11704;DHT22;5908;51.354;7.458;2023-08-06T12:44:22;19.80;99.90
11704;DHT22;5908;51.354;7.458;2023-08-06T12:46:51;19.70;99.90
11704;DHT22;5908;51.354;7.458;2023-08-06T12:49:18;19.60;99.90
11704;DHT22;5908;51.354;7.458;2023-08-06T12:51:46;19.70;99.90
11704;DHT22;5908;51.354;7.458;2023-08-06T12:54:13;19.90;99.90
11704;DHT22;5908;51.354;7.458;2023-08-06T12:56:40;20.00;99.90
11704;DHT22;5908;51.354;7.458;2023-08-06T12:59:06;20.30;99.90
11704;DHT22;5908;51.354;7.458;2023-08-06T13:01:33;20.30;99.90
11704;DHT22;5908;51.354;7.458;2023-08-06T13:04:01;20.10;99.90
11704;DHT22;5908;51.354;7.458;2023-08-06T13:06:29;20.00;99.90
11704;DHT22;5908;51.354;7.458;2023-08-06T13:08:56;19.90;99.90
11704;DHT22;5908;51.354;7.458;2023-08-06T13:11:23;19.80;99.90
11704;DHT22;5908;51.354;7.458;2023-08-06T13:13:50;19.70;99.90
11704;DHT22;5908;51.354;7.458;2023-08-06T13:16:17;19.40;99.90
11704;DHT22;5908;51.354;7.458;2023-08-06T13:18:44;19.40;99.90
11704;DHT22;5908;51.354;7.458;2023-08-06T13:21:12;19.50;99.90
11704;DHT22;5908;51.354;7.458;2023-08-06T13:23:39;19.30;99.90
11704;DHT22;5908;51.354;7.458;2023-08-06T13:26:06;19.20;99.90
11704;DHT22;5908;51.354;7.458;2023-08-06T13:28:33;19.20;99.90
11704;DHT22;5908;51.354;7.458;2023-08-06T13:30:59;19.10;99.90
11704;DHT22;5908;51.354;7.458;2023-08-06T13:33:26;19.10;99.90
11704;DHT22;5908;51.354;7.458;2023-08-06T13:35:53;19.00;99.90
11704;DHT22;5908;51.354;7.458;2023-08-06T13:38:21;19.10;99.90
11704;DHT22;5908;51.354;7.458;2023-08-06T13:40:48;19.30;99.90
11704;DHT22;5908;51.354;7.458;2023-08-06T13:43:14;19.40;99.90
11704;DHT22;5908;51.354;7.458;2023-08-06T13:45:44;19.40;99.90
11704;DHT22;5908;51.354;7.458;2023-08-06T13:48:11;19.20;99.90
11704;DHT22;5908;51.354;7.458;2023-08-06T13:50:38;19.20;99.90
11704;DHT22;5908;51.354;7.458;2023-08-06T13:53:04;19.30;99.90
11704;DHT22;5908;51.354;7.458;2023-08-06T13:55:33;19.30;99.90
11704;DHT22;5908;51.354;7.458;2023-08-06T13:57:59;19.50;99.90
11704;DHT22;5908;51.354;7.458;2023-08-06T14:00:26;19.50;99.90
11704;DHT22;5908;51.354;7.458;2023-08-06T14:02:53;19.30;99.90
11704;DHT22;5908;51.354;7.458;2023-08-06T14:05:20;19.40;99.90
11704;DHT22;5908;51.354;7.458;2023-08-06T14:07:46;19.60;99.90
11704;DHT22;5908;51.354;7.458;2023-08-06T14:10:13;19.70;99.90
11704;DHT22;5908;51.354;7.458;2023-08-06T14:12:41;19.90;99.90
11704;DHT22;5908;51.354;7.458;2023-08-06T14:15:10;19.80;99.90
11704;DHT22;5908;51.354;7.458;2023-08-06T14:17:37;19.80;99.90
11704;DHT22;5908;51.354;7.458;2023-08-06T14:20:05;19.70;99.90
11704;DHT22;5908;51.354;7.458;2023-08-06T14:22:34;19.60;99.90
11704;DHT22;5908;51.354;7.458;2023-08-06T14:25:01;19.60;99.90
11704;DHT22;5908;51.354;7.458;2023-08-06T14:27:28;19.70;99.90
11704;DHT22;5908;51.354;7.458;2023-08-06T14:29:57;19.60;99.90
11704;DHT22;5908;51.354;7.458;2023-08-06T14:32:23;19.30;99.90
11704;DHT22;5908;51.354;7.458;2023-08-06T14:34:51;19.20;99.90
11704;DHT22;5908;51.354;7.458;2023-08-06T14:37:18;19.20;99.90
11704;DHT22;5908;51.354;7.458;2023-08-06T14:39:45;19.10;99.90
11704;DHT22;5908;51.354;7.458;2023-08-06T14:42:11;19.00;99.90
11704;DHT22;5908;51.354;7.458;2023-08-06T14:44:38;19.00;99.90
11704;DHT22;5908;51.354;7.458;2023-08-06T14:47:08;18.80;99.90
11704;DHT22;5908;51.354;7.458;2023-08-06T14:49:34;18.70;99.90
11704;DHT22;5908;51.354;7.458;2023-08-06T14:52:01;18.60;99.90
11704;DHT22;5908;51.354;7.458;2023-08-06T14:54:28;18.40;99.90
11704;DHT22;5908;51.354;7.458;2023-08-06T14:56:54;18.10;99.90
11704;DHT22;5908;51.354;7.458;2023-08-06T14:59:21;17.90;99.90
11704;DHT22;5908;51.354;7.458;2023-08-06T15:01:47;17.80;99.90
11704;DHT22;5908;51.354;7.458;2023-08-06T15:04:15;17.70;99.90
11704;DHT22;5908;51.354;7.458;2023-08-06T15:06:42;17.70;99.90
11704;DHT22;5908;51.354;7.458;2023-08-06T15:09:08;17.50;99.90
11704;DHT22;5908;51.354;7.458;2023-08-06T15:11:35;17.60;99.90
11704;DHT22;5908;51.354;7.458;2023-08-06T15:14:02;17.60;99.90
11704;DHT22;5908;51.354;7.458;2023-08-06T15:16:30;17.60;99.90
11704;DHT22;5908;51.354;7.458;2023-08-06T15:18:59;17.70;99.90
11704;DHT22;5908;51.354;7.458;2023-08-06T15:21:27;17.70;99.90
11704;DHT22;5908;51.354;7.458;2023-08-06T15:23:53;17.70;99.90
11704;DHT22;5908;51.354;7.458;2023-08-06T15:26:20;17.80;99.90
11704;DHT22;5908;51.354;7.458;2023-08-06T15:28:47;17.70;99.90
11704;DHT22;5908;51.354;7.458;2023-08-06T15:31:13;17.80;99.90
11704;DHT22;5908;51.354;7.458;2023-08-06T15:33:40;17.90;99.90
11704;DHT22;5908;51.354;7.458;2023-08-06T15:36:07;18.00;99.90
11704;DHT22;5908;51.354;7.458;2023-08-06T15:38:35;18.20;99.90
11704;DHT22;5908;51.354;7.458;2023-08-06T15:41:01;17.90;99.90
11704;DHT22;5908;51.354;7.458;2023-08-06T15:43:28;18.00;99.90
11704;DHT22;5908;51.354;7.458;2023-08-06T15:45:55;17.90;99.90